createdAt,value
2023-02-02T02:17:39.362Z,3.54
2023-02-02T02:28:00.896Z,3.40
2023-02-02T02:38:28.028Z,3.32
2023-02-02T02:48:30.898Z,3.15
2023-02-02T02:58:46.184Z,3.09
2023-02-02T03:08:53.797Z,2.92
2023-02-02T03:18:56.961Z,2.88
2023-02-02T03:29:00.839Z,2.76
2023-02-02T03:39:09.511Z,2.67
2023-02-02T03:49:11.217Z,2.54
2023-02-02T03:59:15.175Z,2.53
2023-02-02T04:09:24.394Z,2.48
2023-02-02T04:19:26.101Z,2.27
2023-02-02T04:29:27.747Z,2.18
2023-02-02T04:39:31.249Z,2.21
2023-02-02T04:49:32.960Z,1.96
2023-02-02T04:59:34.726Z,2.01
2023-02-02T05:09:39.610Z,1.90
2023-02-02T05:19:43.275Z,2.03
2023-02-02T05:29:55.648Z,2.08
2023-02-02T05:39:57.485Z,2.16
2023-02-02T05:50:02.623Z,2.07
2023-02-02T06:00:05.644Z,1.99
2023-02-02T06:10:07.648Z,1.96
2023-02-02T06:20:10.117Z,1.72
2023-02-02T06:30:13.367Z,1.72
2023-02-02T06:40:17.795Z,1.90
2023-02-02T06:50:21.426Z,1.97
2023-02-02T07:00:23.435Z,2.23
2023-02-02T07:11:09.202Z,2.52
2023-02-02T07:20:49.126Z,2.69
2023-02-02T07:30:53.158Z,2.88
2023-02-02T07:40:56.219Z,3.09
2023-02-02T07:51:06.138Z,3.28
2023-02-02T08:01:10.556Z,3.64
2023-02-02T08:11:16.389Z,3.98
2023-02-02T08:21:20.202Z,4.22
2023-02-02T08:31:42.144Z,4.57
2023-02-02T08:41:45.367Z,4.31
2023-02-02T08:51:47.164Z,4.46
2023-02-02T09:01:50.049Z,4.84
2023-02-02T09:11:51.890Z,4.95
2023-02-02T09:21:54.648Z,5.50
2023-02-02T09:31:57.863Z,5.61
2023-02-02T09:42:18.319Z,5.77
2023-02-02T09:52:43.700Z,5.98
2023-02-02T10:02:50.028Z,6.00
2023-02-02T10:13:18.183Z,6.05
2023-02-02T10:23:29.464Z,6.25
2023-02-02T10:33:41.972Z,7.70
2023-02-02T10:44:01.504Z,9.24
2023-02-02T10:54:19.552Z,9.72
2023-02-02T11:04:41.953Z,11.10
2023-02-02T11:15:00.009Z,10.70
2023-02-02T11:25:25.551Z,8.39
2023-02-02T11:35:31.746Z,6.97
2023-02-02T11:45:36.861Z,7.07
2023-02-02T11:55:38.622Z,6.27
2023-02-02T12:05:44.179Z,6.15
2023-02-02T12:16:00.000Z,5.80
2023-02-02T12:26:20.673Z,5.69
2023-02-02T12:36:43.900Z,5.66
2023-02-02T12:47:18.053Z,5.67
2023-02-02T12:57:46.142Z,5.45
2023-02-02T13:07:55.643Z,5.47
2023-02-02T13:18:07.560Z,5.45
2023-02-02T13:28:20.005Z,5.37
2023-02-02T13:38:24.752Z,5.48
2023-02-02T13:49:01.232Z,5.46
2023-02-02T13:59:37.224Z,5.51
2023-02-02T14:09:42.083Z,5.53
2023-02-02T14:19:49.535Z,5.40
2023-02-02T14:29:53.010Z,5.33
2023-02-02T14:40:04.451Z,5.29
2023-02-02T14:50:15.369Z,5.21
2023-02-02T15:00:28.386Z,5.27
2023-02-02T15:11:23.920Z,5.18
2023-02-02T15:21:27.908Z,5.11
2023-02-02T15:31:32.581Z,5.02
2023-02-02T15:41:38.082Z,4.93
2023-02-02T15:51:43.558Z,4.80
2023-02-02T16:01:50.497Z,4.60
2023-02-02T16:11:53.261Z,4.42
2023-02-02T16:21:59.224Z,4.22
2023-02-02T16:32:04.879Z,4.29
2023-02-02T16:42:23.788Z,4.14
2023-02-02T16:52:29.605Z,4.02
2023-02-02T17:02:35.768Z,3.99
2023-02-02T17:12:37.825Z,3.87
2023-02-02T17:22:45.824Z,3.76
2023-02-02T17:32:49.002Z,3.73
2023-02-02T17:42:53.180Z,3.60
2023-02-02T17:52:55.504Z,3.66
2023-02-02T18:03:10.871Z,3.54
2023-02-02T18:13:21.360Z,3.50
2023-02-02T18:23:24.603Z,3.38
2023-02-02T18:33:27.684Z,3.27
2023-02-02T18:43:33.379Z,3.26
2023-02-02T18:53:43.417Z,3.32
2023-02-02T19:03:51.499Z,3.20
2023-02-02T19:13:53.891Z,3.18
2023-02-02T19:23:57.287Z,3.08
2023-02-02T19:33:59.824Z,3.04
2023-02-02T19:44:10.733Z,2.96
2023-02-02T19:54:47.778Z,2.79
2023-02-02T20:04:59.720Z,2.63
2023-02-02T20:15:19.610Z,2.42
2023-02-02T20:25:22.328Z,2.50
2023-02-02T20:35:36.417Z,2.38
2023-02-02T20:45:40.231Z,2.27
2023-02-02T20:55:44.784Z,2.27
2023-02-02T21:05:49.861Z,2.21
2023-02-02T21:15:52.756Z,2.15
2023-02-02T21:26:01.958Z,2.01
2023-02-02T21:36:27.291Z,1.91
2023-02-02T21:46:37.193Z,1.85
2023-02-02T21:56:40.356Z,1.86
2023-02-02T22:06:46.576Z,1.84
2023-02-02T22:16:55.108Z,1.73
2023-02-02T22:26:58.993Z,1.61
2023-02-02T22:37:01.596Z,1.57
2023-02-02T22:47:03.477Z,1.35
2023-02-02T22:57:06.356Z,1.39
2023-02-02T23:07:08.265Z,1.41
2023-02-02T23:17:11.989Z,1.41
2023-02-02T23:27:14.640Z,1.39
2023-02-02T23:37:16.411Z,1.27
2023-02-02T23:47:18.988Z,1.21
2023-02-02T23:57:21.029Z,0.96
